Latest Weather Observations for Fort Denison

IDN60801

Issued at 5:32 am EST Friday 29 April 2016 (issued every 30 minutes, with the page automatically refreshed every 10 minutes)

About weather observations | Map of weather stations | Latest weather observations for NSW | Other Formats
Station Details ID: 066022 Name: FORT DENISON Lat: -33.86 Lon: 151.23 Height: 5.0 m
Data from the previous 72 hours. | See also: Recent months for locations in New South Wales
Date/Time
EST
Temp
°C
App
Temp
°C
Dew
Point
Rel
Hum
%
Delta-T
°C
Wind Press
QNH
hPa
Press
MSL
hPa
Rain
since 9 am
mm
Dir
 
Spd
km/h
Gust
km/h
Spd
kts
Gust
kts
29/05:30am - - - - - WNW 7 9 4 5 - - -
29/05:00am - - - - - WNW 7 7 4 4 - - -
29/04:30am - - - - - W 11 13 6 7 - - -
29/04:00am - - - - - NNW 2 4 1 2 - - -
29/03:30am - - - - - NE 2 4 1 2 - - -
29/03:00am - - - - - NNE 4 6 2 3 - - -
29/02:30am - - - - - NW 4 6 2 3 - - -
29/02:00am - - - - - NW 2 4 1 2 - - -
29/01:30am - - - - - ENE 7 9 4 5 - - -
29/01:00am - - - - - NNW 6 7 3 4 - - -
29/12:30am - - - - - NNW 4 6 2 3 - - -
29/12:00am - - - - - NNE 2 4 1 2 - - -
 
Date/Time
EST
Temp
°C
App
Temp
°C
Dew
Point
Rel
Hum
%
Delta-T
°C
Wind Press
QNH
hPa
Press
MSL
hPa
Rain
since 9 am
mm
Dir
 
Spd
km/h
Gust
km/h
Spd
kts
Gust
kts
28/11:30pm - - - - - WNW 7 11 4 6 - - -
28/11:00pm - - - - - WSW 2 6 1 3 - - -
28/10:30pm - - - - - ENE 2 6 1 3 - - -
28/10:00pm - - - - - NNE 6 9 3 5 - - -
28/09:30pm - - - - - NNE 6 11 3 6 - - -
28/09:00pm - - - - - NE 9 19 5 10 - - -
28/08:30pm - - - - - NE 11 19 6 10 - - -
28/08:00pm - - - - - NE 9 17 5 9 - - -
28/07:30pm - - - - - NNE 6 13 3 7 - - -
28/07:00pm - - - - - NE 7 15 4 8 - - -
28/06:30pm - - - - - NE 7 15 4 8 - - -
28/06:00pm - - - - - NE 7 17 4 9 - - -
28/05:30pm - - - - - ENE 9 19 5 10 - - -
28/05:00pm - - - - - NE 9 19 5 10 - - -
28/04:30pm - - - - - ENE 9 13 5 7 - - -
28/04:00pm - - - - - E 13 17 7 9 - - -
28/03:30pm - - - - - ENE 17 20 9 11 - - -
28/03:00pm - - - - - E 20 24 11 13 - - -
28/02:30pm - - - - - ESE 13 15 7 8 - - -
28/02:00pm - - - - - E 13 15 7 8 - - -
28/01:30pm - - - - - E 15 17 8 9 - - -
28/01:00pm - - - - - E 9 11 5 6 - - -
28/12:30pm - - - - - WSW 2 4 1 2 - - -
28/12:00pm - - - - - W 6 9 3 5 - - -
28/11:30am - - - - - W 9 11 5 6 - - -
28/11:00am - - - - - W 9 11 5 6 - - -
28/10:30am - - - - - W 9 13 5 7 - - -
28/10:00am - - - - - WNW 13 15 7 8 - - -
28/09:30am - - - - - W 17 19 9 10 - - -
28/09:00am - - - - - W 11 15 6 8 - - -
28/08:30am - - - - - W 11 13 6 7 - - -
28/08:00am - - - - - W 13 19 7 10 - - -
28/07:30am - - - - - W 15 19 8 10 - - -
28/07:00am - - - - - WNW 6 9 3 5 - - -
28/06:30am - - - - - NW 7 9 4 5 - - -
28/06:00am - - - - - WNW 11 15 6 8 - - -
28/05:30am - - - - - W 13 17 7 9 - - -
28/05:00am - - - - - W 13 17 7 9 - - -
28/04:30am - - - - - W 11 13 6 7 - - -
28/04:00am - - - - - W 11 13 6 7 - - -
28/03:30am - - - - - WNW 7 9 4 5 - - -
28/03:00am - - - - - W 11 13 6 7 - - -
28/02:30am - - - - - W 11 13 6 7 - - -
28/02:00am - - - - - W 9 11 5 6 - - -
28/01:30am - - - - - WNW 7 11 4 6 - - -
28/01:00am - - - - - W 9 11 5 6 - - -
28/12:30am - - - - - W 9 13 5 7 - - -
28/12:00am - - - - - WNW 6 7 3 4 - - -
 
Date/Time
EST
Temp
°C
App
Temp
°C
Dew
Point
Rel
Hum
%
Delta-T
°C
Wind Press
QNH
hPa
Press
MSL
hPa
Rain
since 9 am
mm
Dir
 
Spd
km/h
Gust
km/h
Spd
kts
Gust
kts
27/11:30pm - - - - - W 7 9 4 5 - - -
27/11:00pm - - - - - WNW 7 9 4 5 - - -
27/10:30pm - - - - - N 6 7 3 4 - - -
27/10:00pm - - - - - N 9 11 5 6 - - -
27/09:30pm - - - - - NNE 11 17 6 9 - - -
27/09:00pm - - - - - NNE 13 15 7 8 - - -
27/08:30pm - - - - - NNE 17 22 9 12 - - -
27/08:00pm - - - - - NNE 17 24 9 13 - - -
27/07:30pm - - - - - NNE 17 24 9 13 - - -
27/07:00pm - - - - - NE 15 24 8 13 - - -
27/06:30pm - - - - - NE 17 26 9 14 - - -
27/06:00pm - - - - - NE 15 24 8 13 - - -
27/05:30pm - - - - - NE 17 26 9 14 - - -
27/05:00pm - - - - - NE 17 26 9 14 - - -
27/04:30pm - - - - - NE 19 28 10 15 - - -
27/04:00pm - - - - - NE 20 30 11 16 - - -
27/03:30pm - - - - - NE 22 35 12 19 - - -
27/03:00pm - - - - - NE 19 32 10 17 - - -
27/02:30pm - - - - - NE 22 33 12 18 - - -
27/02:00pm - - - - - NE 20 32 11 17 - - -
27/01:30pm - - - - - ENE 20 30 11 16 - - -
27/01:00pm - - - - - ENE 20 30 11 16 - - -
27/12:30pm - - - - - ENE 17 24 9 13 - - -
27/12:00pm - - - - - ENE 20 26 11 14 - - -
27/11:30am - - - - - E 15 19 8 10 - - -
27/11:00am - - - - - ESE 6 9 3 5 - - -
27/10:30am - - - - - WSW 6 9 3 5 - - -
27/10:00am - - - - - W 11 13 6 7 - - -
27/09:30am - - - - - W 13 15 7 8 - - -
27/09:00am - - - - - WNW 15 19 8 10 - - -
27/08:30am - - - - - WNW 15 19 8 10 - - -
27/08:00am - - - - - W 13 17 7 9 - - -
27/07:30am - - - - - WNW 11 13 6 7 - - -
27/07:00am - - - - - WNW 15 17 8 9 - - -
27/06:30am - - - - - WNW 11 13 6 7 - - -
27/06:00am - - - - - W 9 11 5 6 - - -
27/05:30am - - - - - WNW 11 13 6 7 - - -
27/05:00am - - - - - W 11 13 6 7 - - -
27/04:30am - - - - - W 11 13 6 7 - - -
27/04:00am - - - - - WNW 9 11 5 6 - - -
27/03:30am - - - - - W 9 9 5 5 - - -
27/03:00am - - - - - NW 6 6 3 3 - - -
27/02:30am - - - - - NW 4 6 2 3 - - -
27/02:00am - - - - - W 9 11 5 6 - - -
27/01:30am - - - - - WNW 11 13 6 7 - - -
27/01:00am - - - - - W 11 13 6 7 - - -
27/12:30am - - - - - WNW 9 13 5 7 - - -
27/12:00am - - - - - NW 9 11 5 6 - - -
 
Date/Time
EST
Temp
°C
App
Temp
°C
Dew
Point
Rel
Hum
%
Delta-T
°C
Wind Press
QNH
hPa
Press
MSL
hPa
Rain
since 9 am
mm
Dir
 
Spd
km/h
Gust
km/h
Spd
kts
Gust
kts
26/11:30pm - - - - - NNW 4 6 2 3 - - -
26/11:00pm - - - - - N 4 6 2 3 - - -
26/10:30pm - - - - - NW 6 9 3 5 - - -
26/10:00pm - - - - - N 4 6 2 3 - - -
26/09:30pm - - - - - NNE 6 9 3 5 - - -
26/09:00pm - - - - - ENE 13 17 7 9 - - -
26/08:30pm - - - - - ENE 13 19 7 10 - - -
26/08:00pm - - - - - ENE 13 19 7 10 - - -
26/07:30pm - - - - - ENE 17 20 9 11 - - -
26/07:00pm - - - - - NE 7 11 4 6 - - -
26/06:30pm - - - - - NE 6 7 3 4 - - -
26/06:00pm - - - - - ENE 9 11 5 6 - - -
26/05:30pm - - - - - ENE 11 13 6 7 - - -
26/05:00pm - - - - - ENE 17 22 9 12 - - -
26/04:30pm - - - - - E 11 13 6 7 - - -
26/04:00pm - - - - - ENE 13 17 7 9 - - -
26/03:30pm - - - - - ENE 13 17 7 9 - - -
26/03:00pm - - - - - E 13 19 7 10 - - -
26/02:30pm - - - - - E 13 20 7 11 - - -
26/02:00pm - - - - - E 13 19 7 10 - - -
26/01:30pm - - - - - E 15 20 8 11 - - -
26/01:00pm - - - - - E 13 17 7 9 - - -
26/12:30pm - - - - - ESE 6 7 3 4 - - -
26/12:00pm - - - - - E 2 4 1 2 - - -
26/11:30am - - - - - WNW 4 6 2 3 - - -
26/11:00am - - - - - WNW 9 13 5 7 - - -
26/10:30am - - - - - WNW 11 17 6 9 - - -
26/10:00am - - - - - WNW 13 17 7 9 - - -
26/09:30am - - - - - W 15 17 8 9 - - -
26/09:00am - - - - - WNW 13 19 7 10 - - -
26/08:30am - - - - - W 17 19 9 10 - - -
26/08:00am - - - - - W 17 20 9 11 - - -
26/07:30am - - - - - WNW 15 19 8 10 - - -
26/07:00am - - - - - WNW 15 19 8 10 - - -
26/06:30am - - - - - WNW 17 20 9 11 - - -
26/06:00am - - - - - WNW 13 17 7 9 - - -

Other Formats:

Comma delimited format used in spreadsheet applications
http://www.bom.gov.au/fwo/IDN60801/IDN60801.94769.axf

JavaScript Object Notation format (JSON) in row-major order
http://www.bom.gov.au/fwo/IDN60801/IDN60801.94769.json